sensor_id;sensor_type;location;lat;lon;timestamp;P1;durP1;ratioP1;P2;durP2;ratioP2
3307;SDS011;1666;48.898;9.182;2023-12-29T00:00:41;2.92;;;2.70;;
3307;SDS011;1666;48.898;9.182;2023-12-29T00:03:11;3.33;;;2.90;;
3307;SDS011;1666;48.898;9.182;2023-12-29T00:05:41;3.63;;;3.00;;
3307;SDS011;1666;48.898;9.182;2023-12-29T00:08:14;3.58;;;2.85;;
3307;SDS011;1666;48.898;9.182;2023-12-29T00:10:44;4.43;;;2.65;;
3307;SDS011;1666;48.898;9.182;2023-12-29T00:13:14;2.88;;;2.33;;
3307;SDS011;1666;48.898;9.182;2023-12-29T00:15:51;4.70;;;2.88;;
3307;SDS011;1666;48.898;9.182;2023-12-29T00:18:21;3.20;;;2.80;;
3307;SDS011;1666;48.898;9.182;2023-12-29T00:20:52;3.47;;;2.80;;
3307;SDS011;1666;48.898;9.182;2023-12-29T00:23:35;3.17;;;2.88;;
3307;SDS011;1666;48.898;9.182;2023-12-29T00:26:05;3.33;;;2.80;;
3307;SDS011;1666;48.898;9.182;2023-12-29T00:28:36;3.80;;;3.30;;
3307;SDS011;1666;48.898;9.182;2023-12-29T00:31:08;3.70;;;2.70;;
3307;SDS011;1666;48.898;9.182;2023-12-29T00:33:38;4.07;;;3.30;;
3307;SDS011;1666;48.898;9.182;2023-12-29T00:36:13;3.40;;;2.90;;
3307;SDS011;1666;48.898;9.182;2023-12-29T00:38:47;3.83;;;3.05;;
3307;SDS011;1666;48.898;9.182;2023-12-29T00:41:17;4.18;;;3.15;;
3307;SDS011;1666;48.898;9.182;2023-12-29T00:43:47;3.45;;;3.00;;
3307;SDS011;1666;48.898;9.182;2023-12-29T00:46:18;3.40;;;3.10;;
3307;SDS011;1666;48.898;9.182;2023-12-29T00:48:48;3.28;;;2.97;;
3307;SDS011;1666;48.898;9.182;2023-12-29T00:51:18;3.65;;;2.88;;
3307;SDS011;1666;48.898;9.182;2023-12-29T00:53:51;3.55;;;3.15;;
3307;SDS011;1666;48.898;9.182;2023-12-29T00:56:21;3.15;;;2.75;;
3307;SDS011;1666;48.898;9.182;2023-12-29T00:58:51;5.15;;;2.97;;
3307;SDS011;1666;48.898;9.182;2023-12-29T01:01:21;5.13;;;3.30;;
3307;SDS011;1666;48.898;9.182;2023-12-29T01:03:51;3.42;;;3.10;;
3307;SDS011;1666;48.898;9.182;2023-12-29T01:06:22;3.75;;;3.10;;
3307;SDS011;1666;48.898;9.182;2023-12-29T01:08:56;3.13;;;2.83;;
3307;SDS011;1666;48.898;9.182;2023-12-29T01:11:26;4.53;;;3.88;;
3307;SDS011;1666;48.898;9.182;2023-12-29T01:13:56;3.78;;;3.42;;
3307;SDS011;1666;48.898;9.182;2023-12-29T01:16:26;4.10;;;3.30;;
3307;SDS011;1666;48.898;9.182;2023-12-29T01:18:56;4.15;;;3.20;;
3307;SDS011;1666;48.898;9.182;2023-12-29T01:21:26;4.53;;;3.10;;
3307;SDS011;1666;48.898;9.182;2023-12-29T01:24:03;3.70;;;3.10;;
3307;SDS011;1666;48.898;9.182;2023-12-29T01:26:36;4.50;;;3.08;;
3307;SDS011;1666;48.898;9.182;2023-12-29T01:29:06;4.05;;;2.95;;
3307;SDS011;1666;48.898;9.182;2023-12-29T01:31:37;3.65;;;3.10;;
3307;SDS011;1666;48.898;9.182;2023-12-29T01:34:07;3.17;;;2.78;;
3307;SDS011;1666;48.898;9.182;2023-12-29T01:36:37;5.57;;;3.17;;
3307;SDS011;1666;48.898;9.182;2023-12-29T01:39:10;6.85;;;3.10;;
3307;SDS011;1666;48.898;9.182;2023-12-29T01:41:40;5.00;;;2.95;;
3307;SDS011;1666;48.898;9.182;2023-12-29T01:44:17;5.25;;;3.20;;
3307;SDS011;1666;48.898;9.182;2023-12-29T01:46:49;3.70;;;2.97;;
3307;SDS011;1666;48.898;9.182;2023-12-29T01:49:18;4.00;;;3.35;;
3307;SDS011;1666;48.898;9.182;2023-12-29T01:51:50;6.07;;;3.33;;
3307;SDS011;1666;48.898;9.182;2023-12-29T01:54:27;6.60;;;3.05;;
3307;SDS011;1666;48.898;9.182;2023-12-29T01:57:02;5.60;;;3.42;;
3307;SDS011;1666;48.898;9.182;2023-12-29T01:59:32;3.40;;;3.10;;
3307;SDS011;1666;48.898;9.182;2023-12-29T02:02:05;3.28;;;2.92;;
3307;SDS011;1666;48.898;9.182;2023-12-29T02:04:35;4.20;;;2.80;;
3307;SDS011;1666;48.898;9.182;2023-12-29T02:07:07;3.78;;;3.15;;
3307;SDS011;1666;48.898;9.182;2023-12-29T02:09:39;5.00;;;3.30;;
3307;SDS011;1666;48.898;9.182;2023-12-29T02:12:10;3.40;;;3.10;;
3307;SDS011;1666;48.898;9.182;2023-12-29T02:14:40;4.30;;;3.20;;
3307;SDS011;1666;48.898;9.182;2023-12-29T02:17:13;4.03;;;3.30;;
3307;SDS011;1666;48.898;9.182;2023-12-29T02:19:50;3.25;;;2.70;;
3307;SDS011;1666;48.898;9.182;2023-12-29T02:22:22;4.20;;;3.08;;
3307;SDS011;1666;48.898;9.182;2023-12-29T02:24:56;5.68;;;3.72;;
3307;SDS011;1666;48.898;9.182;2023-12-29T02:27:29;3.95;;;3.13;;
3307;SDS011;1666;48.898;9.182;2023-12-29T02:30:09;3.83;;;3.13;;
3307;SDS011;1666;48.898;9.182;2023-12-29T02:32:42;5.10;;;3.45;;
3307;SDS011;1666;48.898;9.182;2023-12-29T02:35:17;7.97;;;3.28;;
3307;SDS011;1666;48.898;9.182;2023-12-29T02:37:49;4.40;;;3.53;;
3307;SDS011;1666;48.898;9.182;2023-12-29T02:40:22;3.20;;;2.90;;
3307;SDS011;1666;48.898;9.182;2023-12-29T02:42:53;4.80;;;3.17;;
3307;SDS011;1666;48.898;9.182;2023-12-29T02:45:23;3.88;;;2.92;;
3307;SDS011;1666;48.898;9.182;2023-12-29T02:47:53;3.33;;;2.90;;
3307;SDS011;1666;48.898;9.182;2023-12-29T02:50:24;3.40;;;3.05;;
3307;SDS011;1666;48.898;9.182;2023-12-29T02:52:55;5.60;;;3.25;;
3307;SDS011;1666;48.898;9.182;2023-12-29T02:55:27;3.33;;;2.80;;
3307;SDS011;1666;48.898;9.182;2023-12-29T02:57:58;5.85;;;3.15;;
3307;SDS011;1666;48.898;9.182;2023-12-29T03:00:28;3.90;;;3.08;;
3307;SDS011;1666;48.898;9.182;2023-12-29T03:02:58;4.90;;;3.25;;
3307;SDS011;1666;48.898;9.182;2023-12-29T03:05:29;4.03;;;3.50;;
3307;SDS011;1666;48.898;9.182;2023-12-29T03:07:59;3.83;;;3.30;;
3307;SDS011;1666;48.898;9.182;2023-12-29T03:10:32;5.68;;;3.40;;
3307;SDS011;1666;48.898;9.182;2023-12-29T03:13:02;4.75;;;3.75;;
3307;SDS011;1666;48.898;9.182;2023-12-29T03:15:33;3.47;;;3.17;;
3307;SDS011;1666;48.898;9.182;2023-12-29T03:18:04;4.10;;;3.20;;
3307;SDS011;1666;48.898;9.182;2023-12-29T03:20:34;5.75;;;3.13;;
3307;SDS011;1666;48.898;9.182;2023-12-29T03:23:04;4.55;;;3.42;;
3307;SDS011;1666;48.898;9.182;2023-12-29T03:25:37;3.75;;;3.35;;
3307;SDS011;1666;48.898;9.182;2023-12-29T03:28:07;5.43;;;3.38;;
3307;SDS011;1666;48.898;9.182;2023-12-29T03:30:37;3.75;;;3.35;;
3307;SDS011;1666;48.898;9.182;2023-12-29T03:33:07;5.15;;;3.22;;
3307;SDS011;1666;48.898;9.182;2023-12-29T03:35:37;3.65;;;3.25;;
3307;SDS011;1666;48.898;9.182;2023-12-29T03:38:07;4.13;;;3.30;;
3307;SDS011;1666;48.898;9.182;2023-12-29T03:40:39;4.93;;;3.47;;
3307;SDS011;1666;48.898;9.182;2023-12-29T03:43:10;3.50;;;2.95;;
3307;SDS011;1666;48.898;9.182;2023-12-29T03:45:40;5.93;;;3.47;;
3307;SDS011;1666;48.898;9.182;2023-12-29T03:48:13;6.82;;;3.70;;
3307;SDS011;1666;48.898;9.182;2023-12-29T03:50:43;3.42;;;3.13;;
3307;SDS011;1666;48.898;9.182;2023-12-29T03:53:14;3.35;;;3.05;;
3307;SDS011;1666;48.898;9.182;2023-12-29T03:55:48;5.72;;;3.58;;
3307;SDS011;1666;48.898;9.182;2023-12-29T03:58:19;4.10;;;3.65;;
3307;SDS011;1666;48.898;9.182;2023-12-29T04:00:49;4.60;;;3.67;;
3307;SDS011;1666;48.898;9.182;2023-12-29T04:03:19;5.22;;;3.45;;
3307;SDS011;1666;48.898;9.182;2023-12-29T04:05:49;7.05;;;3.63;;
3307;SDS011;1666;48.898;9.182;2023-12-29T04:08:19;4.35;;;3.63;;
3307;SDS011;1666;48.898;9.182;2023-12-29T04:10:51;4.45;;;3.78;;
3307;SDS011;1666;48.898;9.182;2023-12-29T04:13:21;5.82;;;4.18;;
3307;SDS011;1666;48.898;9.182;2023-12-29T04:15:52;6.88;;;4.97;;
3307;SDS011;1666;48.898;9.182;2023-12-29T04:18:23;5.50;;;3.95;;
3307;SDS011;1666;48.898;9.182;2023-12-29T04:20:54;5.05;;;3.90;;
3307;SDS011;1666;48.898;9.182;2023-12-29T04:23:24;5.32;;;4.38;;
3307;SDS011;1666;48.898;9.182;2023-12-29T04:25:58;7.72;;;4.70;;
3307;SDS011;1666;48.898;9.182;2023-12-29T04:28:29;4.18;;;3.72;;
3307;SDS011;1666;48.898;9.182;2023-12-29T04:31:00;6.20;;;4.53;;
3307;SDS011;1666;48.898;9.182;2023-12-29T04:33:30;5.13;;;3.50;;
3307;SDS011;1666;48.898;9.182;2023-12-29T04:36:01;3.95;;;3.55;;
3307;SDS011;1666;48.898;9.182;2023-12-29T04:38:32;5.43;;;4.00;;
3307;SDS011;1666;48.898;9.182;2023-12-29T04:41:07;4.15;;;3.53;;
3307;SDS011;1666;48.898;9.182;2023-12-29T04:43:37;3.58;;;3.28;;
3307;SDS011;1666;48.898;9.182;2023-12-29T04:46:07;5.43;;;3.30;;
3307;SDS011;1666;48.898;9.182;2023-12-29T04:48:37;4.72;;;3.28;;
3307;SDS011;1666;48.898;9.182;2023-12-29T04:51:07;5.10;;;3.63;;
3307;SDS011;1666;48.898;9.182;2023-12-29T04:53:37;4.65;;;3.50;;
3307;SDS011;1666;48.898;9.182;2023-12-29T04:56:10;4.10;;;3.25;;
3307;SDS011;1666;48.898;9.182;2023-12-29T04:58:40;3.25;;;2.88;;
3307;SDS011;1666;48.898;9.182;2023-12-29T05:01:10;3.53;;;2.95;;
3307;SDS011;1666;48.898;9.182;2023-12-29T05:03:41;3.55;;;3.08;;
3307;SDS011;1666;48.898;9.182;2023-12-29T05:06:11;5.90;;;3.00;;
3307;SDS011;1666;48.898;9.182;2023-12-29T05:08:41;5.82;;;3.53;;
3307;SDS011;1666;48.898;9.182;2023-12-29T05:11:13;15.93;;;9.55;;
3307;SDS011;1666;48.898;9.182;2023-12-29T05:13:43;5.78;;;4.15;;
3307;SDS011;1666;48.898;9.182;2023-12-29T05:16:13;6.20;;;3.80;;
3307;SDS011;1666;48.898;9.182;2023-12-29T05:18:43;4.03;;;3.55;;
3307;SDS011;1666;48.898;9.182;2023-12-29T05:21:14;3.75;;;2.90;;
3307;SDS011;1666;48.898;9.182;2023-12-29T05:23:45;4.30;;;3.53;;
3307;SDS011;1666;48.898;9.182;2023-12-29T05:26:18;3.63;;;3.30;;
3307;SDS011;1666;48.898;9.182;2023-12-29T05:28:48;4.60;;;3.58;;
3307;SDS011;1666;48.898;9.182;2023-12-29T05:31:18;3.67;;;3.28;;
3307;SDS011;1666;48.898;9.182;2023-12-29T05:33:48;4.97;;;3.58;;
3307;SDS011;1666;48.898;9.182;2023-12-29T05:36:15;3.95;;;3.55;;
3307;SDS011;1666;48.898;9.182;2023-12-29T05:38:46;4.82;;;4.15;;
3307;SDS011;1666;48.898;9.182;2023-12-29T05:41:19;4.63;;;3.85;;
3307;SDS011;1666;48.898;9.182;2023-12-29T05:43:49;4.32;;;3.70;;
3307;SDS011;1666;48.898;9.182;2023-12-29T05:46:19;4.68;;;4.00;;
3307;SDS011;1666;48.898;9.182;2023-12-29T05:48:49;5.53;;;3.67;;
3307;SDS011;1666;48.898;9.182;2023-12-29T05:51:21;6.28;;;3.70;;
3307;SDS011;1666;48.898;9.182;2023-12-29T05:53:51;5.18;;;3.80;;
3307;SDS011;1666;48.898;9.182;2023-12-29T05:56:24;5.65;;;3.83;;
3307;SDS011;1666;48.898;9.182;2023-12-29T05:58:54;4.32;;;3.65;;
3307;SDS011;1666;48.898;9.182;2023-12-29T06:01:25;4.75;;;4.10;;
3307;SDS011;1666;48.898;9.182;2023-12-29T06:03:55;4.50;;;4.10;;
3307;SDS011;1666;48.898;9.182;2023-12-29T06:06:25;4.25;;;3.53;;
3307;SDS011;1666;48.898;9.182;2023-12-29T06:08:56;5.85;;;3.70;;
3307;SDS011;1666;48.898;9.182;2023-12-29T06:11:28;5.25;;;4.15;;
3307;SDS011;1666;48.898;9.182;2023-12-29T06:13:58;5.95;;;4.18;;
3307;SDS011;1666;48.898;9.182;2023-12-29T06:16:29;4.38;;;3.97;;
3307;SDS011;1666;48.898;9.182;2023-12-29T06:19:00;4.75;;;3.95;;
3307;SDS011;1666;48.898;9.182;2023-12-29T06:21:30;4.78;;;4.30;;
3307;SDS011;1666;48.898;9.182;2023-12-29T06:24:01;7.53;;;5.03;;
3307;SDS011;1666;48.898;9.182;2023-12-29T06:26:33;4.35;;;3.95;;
3307;SDS011;1666;48.898;9.182;2023-12-29T06:29:08;6.88;;;5.00;;
3307;SDS011;1666;48.898;9.182;2023-12-29T06:31:39;4.97;;;4.47;;
3307;SDS011;1666;48.898;9.182;2023-12-29T06:34:10;6.10;;;4.32;;
3307;SDS011;1666;48.898;9.182;2023-12-29T06:36:41;6.30;;;4.28;;
3307;SDS011;1666;48.898;9.182;2023-12-29T06:39:11;7.05;;;4.50;;
3307;SDS011;1666;48.898;9.182;2023-12-29T06:41:44;8.20;;;5.07;;
3307;SDS011;1666;48.898;9.182;2023-12-29T06:44:14;6.68;;;4.90;;
3307;SDS011;1666;48.898;9.182;2023-12-29T06:46:44;5.65;;;4.53;;
3307;SDS011;1666;48.898;9.182;2023-12-29T06:49:14;5.22;;;4.72;;
3307;SDS011;1666;48.898;9.182;2023-12-29T06:51:45;6.15;;;4.55;;
3307;SDS011;1666;48.898;9.182;2023-12-29T06:54:15;7.70;;;4.60;;
3307;SDS011;1666;48.898;9.182;2023-12-29T06:56:48;6.78;;;4.68;;
3307;SDS011;1666;48.898;9.182;2023-12-29T06:59:18;4.95;;;4.07;;
3307;SDS011;1666;48.898;9.182;2023-12-29T07:01:48;5.63;;;4.43;;
3307;SDS011;1666;48.898;9.182;2023-12-29T07:04:19;6.22;;;4.00;;
3307;SDS011;1666;48.898;9.182;2023-12-29T07:06:49;4.22;;;3.83;;
3307;SDS011;1666;48.898;9.182;2023-12-29T07:09:19;5.53;;;3.75;;
3307;SDS011;1666;48.898;9.182;2023-12-29T07:11:52;4.80;;;3.92;;
3307;SDS011;1666;48.898;9.182;2023-12-29T07:14:22;5.15;;;4.40;;
3307;SDS011;1666;48.898;9.182;2023-12-29T07:16:52;4.00;;;3.60;;
3307;SDS011;1666;48.898;9.182;2023-12-29T07:19:22;5.10;;;3.67;;
3307;SDS011;1666;48.898;9.182;2023-12-29T07:21:54;5.10;;;3.63;;
3307;SDS011;1666;48.898;9.182;2023-12-29T07:24:24;4.07;;;3.17;;
3307;SDS011;1666;48.898;9.182;2023-12-29T07:26:57;3.80;;;3.40;;
3307;SDS011;1666;48.898;9.182;2023-12-29T07:29:28;3.50;;;3.10;;
3307;SDS011;1666;48.898;9.182;2023-12-29T07:31:58;4.45;;;3.20;;
3307;SDS011;1666;48.898;9.182;2023-12-29T07:34:29;3.20;;;2.90;;
3307;SDS011;1666;48.898;9.182;2023-12-29T07:37:00;4.63;;;3.40;;
3307;SDS011;1666;48.898;9.182;2023-12-29T07:39:30;3.25;;;2.95;;
3307;SDS011;1666;48.898;9.182;2023-12-29T07:42:03;3.38;;;2.78;;
3307;SDS011;1666;48.898;9.182;2023-12-29T07:44:33;2.88;;;2.42;;
3307;SDS011;1666;48.898;9.182;2023-12-29T07:47:03;5.32;;;2.97;;
3307;SDS011;1666;48.898;9.182;2023-12-29T07:49:33;2.90;;;2.15;;
3307;SDS011;1666;48.898;9.182;2023-12-29T07:52:04;2.83;;;2.40;;
3307;SDS011;1666;48.898;9.182;2023-12-29T07:54:34;2.90;;;2.20;;
3307;SDS011;1666;48.898;9.182;2023-12-29T07:57:07;3.20;;;2.47;;
3307;SDS011;1666;48.898;9.182;2023-12-29T07:59:37;2.97;;;2.17;;
3307;SDS011;1666;48.898;9.182;2023-12-29T08:02:07;2.17;;;1.98;;
3307;SDS011;1666;48.898;9.182;2023-12-29T08:04:37;3.88;;;2.88;;
3307;SDS011;1666;48.898;9.182;2023-12-29T08:07:07;2.50;;;2.30;;
3307;SDS011;1666;48.898;9.182;2023-12-29T08:09:37;2.50;;;2.00;;
3307;SDS011;1666;48.898;9.182;2023-12-29T08:12:10;2.88;;;2.40;;
3307;SDS011;1666;48.898;9.182;2023-12-29T08:14:40;3.28;;;2.15;;
3307;SDS011;1666;48.898;9.182;2023-12-29T08:17:10;2.55;;;2.30;;
3307;SDS011;1666;48.898;9.182;2023-12-29T08:19:40;2.45;;;2.03;;
3307;SDS011;1666;48.898;9.182;2023-12-29T08:22:10;2.78;;;2.08;;
3307;SDS011;1666;48.898;9.182;2023-12-29T08:24:40;3.15;;;2.28;;
3307;SDS011;1666;48.898;9.182;2023-12-29T08:27:14;3.95;;;2.75;;
3307;SDS011;1666;48.898;9.182;2023-12-29T08:29:52;4.18;;;3.10;;
3307;SDS011;1666;48.898;9.182;2023-12-29T08:32:22;4.78;;;2.55;;
3307;SDS011;1666;48.898;9.182;2023-12-29T08:34:52;4.65;;;2.67;;
3307;SDS011;1666;48.898;9.182;2023-12-29T08:37:22;3.10;;;2.22;;
3307;SDS011;1666;48.898;9.182;2023-12-29T08:39:52;3.55;;;2.72;;
3307;SDS011;1666;48.898;9.182;2023-12-29T08:42:27;3.42;;;2.30;;
3307;SDS011;1666;48.898;9.182;2023-12-29T08:44:58;3.67;;;2.15;;
3307;SDS011;1666;48.898;9.182;2023-12-29T08:47:32;3.63;;;2.33;;
3307;SDS011;1666;48.898;9.182;2023-12-29T08:50:02;2.97;;;2.50;;
3307;SDS011;1666;48.898;9.182;2023-12-29T08:52:33;8.43;;;5.57;;
3307;SDS011;1666;48.898;9.182;2023-12-29T08:55:04;3.58;;;2.42;;
3307;SDS011;1666;48.898;9.182;2023-12-29T08:57:37;3.08;;;2.47;;
3307;SDS011;1666;48.898;9.182;2023-12-29T09:00:08;3.53;;;2.30;;
3307;SDS011;1666;48.898;9.182;2023-12-29T09:02:39;3.67;;;2.10;;
3307;SDS011;1666;48.898;9.182;2023-12-29T09:05:10;3.95;;;2.65;;
3307;SDS011;1666;48.898;9.182;2023-12-29T09:07:40;3.35;;;2.30;;
3307;SDS011;1666;48.898;9.182;2023-12-29T09:10:10;3.75;;;2.25;;
3307;SDS011;1666;48.898;9.182;2023-12-29T09:12:44;3.45;;;2.20;;
3307;SDS011;1666;48.898;9.182;2023-12-29T09:15:14;2.33;;;2.10;;
3307;SDS011;1666;48.898;9.182;2023-12-29T09:17:44;2.45;;;2.22;;
3307;SDS011;1666;48.898;9.182;2023-12-29T09:20:14;2.53;;;1.92;;
3307;SDS011;1666;48.898;9.182;2023-12-29T09:22:45;2.80;;;2.28;;
3307;SDS011;1666;48.898;9.182;2023-12-29T09:25:15;3.67;;;2.90;;
3307;SDS011;1666;48.898;9.182;2023-12-29T09:27:48;2.83;;;2.53;;
3307;SDS011;1666;48.898;9.182;2023-12-29T09:30:19;2.97;;;2.45;;
3307;SDS011;1666;48.898;9.182;2023-12-29T09:32:49;2.65;;;2.38;;
3307;SDS011;1666;48.898;9.182;2023-12-29T09:35:19;4.72;;;2.53;;
3307;SDS011;1666;48.898;9.182;2023-12-29T09:37:49;2.92;;;2.40;;
3307;SDS011;1666;48.898;9.182;2023-12-29T09:40:19;5.38;;;2.53;;
3307;SDS011;1666;48.898;9.182;2023-12-29T09:42:52;3.40;;;2.40;;
3307;SDS011;1666;48.898;9.182;2023-12-29T09:45:23;3.42;;;2.33;;
3307;SDS011;1666;48.898;9.182;2023-12-29T09:47:54;3.50;;;2.22;;
3307;SDS011;1666;48.898;9.182;2023-12-29T09:50:26;3.17;;;2.30;;
3307;SDS011;1666;48.898;9.182;2023-12-29T09:52:56;7.07;;;2.47;;
3307;SDS011;1666;48.898;9.182;2023-12-29T09:55:28;2.42;;;2.20;;
3307;SDS011;1666;48.898;9.182;2023-12-29T09:58:01;2.72;;;2.22;;
3307;SDS011;1666;48.898;9.182;2023-12-29T10:00:31;3.88;;;1.92;;
3307;SDS011;1666;48.898;9.182;2023-12-29T10:03:02;2.30;;;1.90;;
3307;SDS011;1666;48.898;9.182;2023-12-29T10:05:34;3.58;;;2.25;;
3307;SDS011;1666;48.898;9.182;2023-12-29T10:08:04;3.33;;;1.95;;
3307;SDS011;1666;48.898;9.182;2023-12-29T10:10:37;3.40;;;1.77;;
3307;SDS011;1666;48.898;9.182;2023-12-29T10:13:14;2.25;;;1.98;;
3307;SDS011;1666;48.898;9.182;2023-12-29T10:15:47;2.03;;;1.88;;
3307;SDS011;1666;48.898;9.182;2023-12-29T10:18:28;2.28;;;1.98;;
3307;SDS011;1666;48.898;9.182;2023-12-29T10:21:11;2.83;;;2.05;;
3307;SDS011;1666;48.898;9.182;2023-12-29T10:23:47;2.67;;;2.00;;
3307;SDS011;1666;48.898;9.182;2023-12-29T10:26:22;2.28;;;1.88;;
3307;SDS011;1666;48.898;9.182;2023-12-29T10:28:55;3.22;;;1.95;;
3307;SDS011;1666;48.898;9.182;2023-12-29T10:31:26;2.40;;;2.00;;
3307;SDS011;1666;48.898;9.182;2023-12-29T10:36:55;2.10;;;1.83;;
3307;SDS011;1666;48.898;9.182;2023-12-29T10:39:28;3.78;;;1.77;;
3307;SDS011;1666;48.898;9.182;2023-12-29T10:42:04;1.90;;;1.60;;
3307;SDS011;1666;48.898;9.182;2023-12-29T10:44:41;4.93;;;3.13;;
3307;SDS011;1666;48.898;9.182;2023-12-29T10:47:12;4.05;;;2.45;;
3307;SDS011;1666;48.898;9.182;2023-12-29T10:49:42;1.63;;;1.52;;
3307;SDS011;1666;48.898;9.182;2023-12-29T10:52:13;1.60;;;1.50;;
3307;SDS011;1666;48.898;9.182;2023-12-29T10:54:44;2.22;;;1.60;;
3307;SDS011;1666;48.898;9.182;2023-12-29T10:57:14;1.60;;;1.30;;
3307;SDS011;1666;48.898;9.182;2023-12-29T10:59:47;1.30;;;1.20;;
3307;SDS011;1666;48.898;9.182;2023-12-29T11:02:24;1.33;;;1.20;;
3307;SDS011;1666;48.898;9.182;2023-12-29T11:05:00;1.38;;;1.25;;
3307;SDS011;1666;48.898;9.182;2023-12-29T11:07:33;5.30;;;3.25;;
3307;SDS011;1666;48.898;9.182;2023-12-29T11:10:04;3.85;;;2.60;;
3307;SDS011;1666;48.898;9.182;2023-12-29T11:12:37;2.10;;;1.20;;
3307;SDS011;1666;48.898;9.182;2023-12-29T11:15:10;1.50;;;1.00;;
3307;SDS011;1666;48.898;9.182;2023-12-29T11:17:43;1.05;;;0.90;;
3307;SDS011;1666;48.898;9.182;2023-12-29T11:20:16;1.10;;;0.90;;
3307;SDS011;1666;48.898;9.182;2023-12-29T11:22:47;1.17;;;1.00;;
3307;SDS011;1666;48.898;9.182;2023-12-29T11:25:17;1.00;;;0.85;;
3307;SDS011;1666;48.898;9.182;2023-12-29T11:27:47;1.10;;;0.80;;
3307;SDS011;1666;48.898;9.182;2023-12-29T11:30:21;1.45;;;0.85;;
3307;SDS011;1666;48.898;9.182;2023-12-29T11:32:53;1.13;;;0.98;;
3307;SDS011;1666;48.898;9.182;2023-12-29T11:35:30;2.55;;;1.75;;
3307;SDS011;1666;48.898;9.182;2023-12-29T11:38:11;2.08;;;1.40;;
3307;SDS011;1666;48.898;9.182;2023-12-29T11:40:56;1.85;;;1.08;;
3307;SDS011;1666;48.898;9.182;2023-12-29T11:43:31;2.90;;;0.80;;
3307;SDS011;1666;48.898;9.182;2023-12-29T11:46:04;0.98;;;0.80;;
3307;SDS011;1666;48.898;9.182;2023-12-29T11:51:27;0.90;;;0.70;;
3307;SDS011;1666;48.898;9.182;2023-12-29T11:53:58;1.42;;;0.68;;
3307;SDS011;1666;48.898;9.182;2023-12-29T11:56:33;1.27;;;0.90;;
3307;SDS011;1666;48.898;9.182;2023-12-29T11:59:16;1.23;;;0.90;;
3307;SDS011;1666;48.898;9.182;2023-12-29T12:01:50;1.05;;;0.90;;
3307;SDS011;1666;48.898;9.182;2023-12-29T12:04:37;1.15;;;0.60;;
3307;SDS011;1666;48.898;9.182;2023-12-29T12:07:13;3.85;;;0.68;;
3307;SDS011;1666;48.898;9.182;2023-12-29T12:09:46;1.67;;;0.82;;
3307;SDS011;1666;48.898;9.182;2023-12-29T12:18:10;1.63;;;0.88;;
3307;SDS011;1666;48.898;9.182;2023-12-29T12:20:41;0.95;;;0.68;;
3307;SDS011;1666;48.898;9.182;2023-12-29T12:23:16;1.80;;;1.10;;
3307;SDS011;1666;48.898;9.182;2023-12-29T12:25:48;2.00;;;1.10;;
3307;SDS011;1666;48.898;9.182;2023-12-29T12:28:27;1.40;;;0.90;;
3307;SDS011;1666;48.898;9.182;2023-12-29T12:31:06;1.73;;;0.90;;
3307;SDS011;1666;48.898;9.182;2023-12-29T12:33:40;4.97;;;3.83;;
3307;SDS011;1666;48.898;9.182;2023-12-29T12:36:11;1.87;;;1.40;;
3307;SDS011;1666;48.898;9.182;2023-12-29T12:38:50;2.70;;;1.70;;
3307;SDS011;1666;48.898;9.182;2023-12-29T12:41:21;4.07;;;1.60;;
3307;SDS011;1666;48.898;9.182;2023-12-29T12:43:57;2.95;;;0.93;;
3307;SDS011;1666;48.898;9.182;2023-12-29T12:46:35;3.50;;;1.10;;
3307;SDS011;1666;48.898;9.182;2023-12-29T12:49:11;1.75;;;1.33;;
3307;SDS011;1666;48.898;9.182;2023-12-29T12:51:42;2.78;;;0.80;;
3307;SDS011;1666;48.898;9.182;2023-12-29T12:54:17;3.25;;;0.70;;
3307;SDS011;1666;48.898;9.182;2023-12-29T12:56:48;0.98;;;0.80;;
3307;SDS011;1666;48.898;9.182;2023-12-29T12:59:19;1.65;;;0.80;;
3307;SDS011;1666;48.898;9.182;2023-12-29T13:01:49;1.45;;;1.00;;
3307;SDS011;1666;48.898;9.182;2023-12-29T13:04:23;1.92;;;0.95;;
3307;SDS011;1666;48.898;9.182;2023-12-29T13:06:54;1.73;;;1.15;;
3307;SDS011;1666;48.898;9.182;2023-12-29T13:09:26;1.10;;;0.93;;
3307;SDS011;1666;48.898;9.182;2023-12-29T13:12:07;1.38;;;1.00;;
3307;SDS011;1666;48.898;9.182;2023-12-29T13:14:38;1.98;;;1.45;;
3307;SDS011;1666;48.898;9.182;2023-12-29T13:17:13;2.63;;;1.70;;
3307;SDS011;1666;48.898;9.182;2023-12-29T13:19:47;2.08;;;1.48;;
3307;SDS011;1666;48.898;9.182;2023-12-29T13:22:27;2.38;;;1.05;;
3307;SDS011;1666;48.898;9.182;2023-12-29T13:24:58;2.65;;;1.20;;
3307;SDS011;1666;48.898;9.182;2023-12-29T13:27:29;4.60;;;3.58;;
3307;SDS011;1666;48.898;9.182;2023-12-29T13:30:00;2.33;;;1.35;;
3307;SDS011;1666;48.898;9.182;2023-12-29T13:32:31;2.10;;;1.40;;
3307;SDS011;1666;48.898;9.182;2023-12-29T13:35:11;3.22;;;1.77;;
3307;SDS011;1666;48.898;9.182;2023-12-29T13:37:47;2.78;;;1.80;;
3307;SDS011;1666;48.898;9.182;2023-12-29T13:40:22;1.73;;;1.63;;
3307;SDS011;1666;48.898;9.182;2023-12-29T13:45:27;1.63;;;1.17;;
3307;SDS011;1666;48.898;9.182;2023-12-29T13:47:59;3.40;;;3.00;;
3307;SDS011;1666;48.898;9.182;2023-12-29T13:50:33;3.38;;;1.60;;
3307;SDS011;1666;48.898;9.182;2023-12-29T13:53:05;2.78;;;1.50;;
3307;SDS011;1666;48.898;9.182;2023-12-29T13:55:36;1.90;;;1.20;;
3307;SDS011;1666;48.898;9.182;2023-12-29T13:58:08;2.90;;;1.20;;
3307;SDS011;1666;48.898;9.182;2023-12-29T14:00:40;1.55;;;1.20;;
3307;SDS011;1666;48.898;9.182;2023-12-29T14:03:14;2.22;;;1.20;;
3307;SDS011;1666;48.898;9.182;2023-12-29T14:05:55;1.75;;;1.23;;
3307;SDS011;1666;48.898;9.182;2023-12-29T14:08:31;1.20;;;0.85;;
3307;SDS011;1666;48.898;9.182;2023-12-29T14:11:06;2.00;;;1.40;;
3307;SDS011;1666;48.898;9.182;2023-12-29T14:13:41;3.00;;;1.30;;
3307;SDS011;1666;48.898;9.182;2023-12-29T14:16:12;2.42;;;1.20;;
3307;SDS011;1666;48.898;9.182;2023-12-29T14:18:53;2.17;;;1.30;;
3307;SDS011;1666;48.898;9.182;2023-12-29T14:21:29;2.35;;;1.27;;
3307;SDS011;1666;48.898;9.182;2023-12-29T14:24:10;2.40;;;1.27;;
3307;SDS011;1666;48.898;9.182;2023-12-29T14:26:44;1.95;;;1.48;;
3307;SDS011;1666;48.898;9.182;2023-12-29T14:29:26;2.37;;;1.60;;
3307;SDS011;1666;48.898;9.182;2023-12-29T14:31:57;3.90;;;1.75;;
3307;SDS011;1666;48.898;9.182;2023-12-29T14:34:28;2.08;;;1.65;;
3307;SDS011;1666;48.898;9.182;2023-12-29T14:37:01;2.08;;;1.45;;
3307;SDS011;1666;48.898;9.182;2023-12-29T14:39:32;4.82;;;2.15;;
3307;SDS011;1666;48.898;9.182;2023-12-29T14:42:03;3.97;;;2.40;;
3307;SDS011;1666;48.898;9.182;2023-12-29T14:44:35;1.92;;;1.30;;
3307;SDS011;1666;48.898;9.182;2023-12-29T14:47:07;2.33;;;1.38;;
3307;SDS011;1666;48.898;9.182;2023-12-29T14:49:39;1.58;;;1.10;;
3307;SDS011;1666;48.898;9.182;2023-12-29T14:52:20;18.65;;;13.38;;
3307;SDS011;1666;48.898;9.182;2023-12-29T14:54:51;4.50;;;3.50;;
3307;SDS011;1666;48.898;9.182;2023-12-29T14:57:23;1.88;;;1.58;;
3307;SDS011;1666;48.898;9.182;2023-12-29T14:59:56;5.23;;;3.30;;
3307;SDS011;1666;48.898;9.182;2023-12-29T15:02:28;2.70;;;1.98;;
3307;SDS011;1666;48.898;9.182;2023-12-29T15:04:59;3.42;;;2.05;;
3307;SDS011;1666;48.898;9.182;2023-12-29T15:07:32;1.50;;;1.15;;
3307;SDS011;1666;48.898;9.182;2023-12-29T15:10:02;1.90;;;1.30;;
3307;SDS011;1666;48.898;9.182;2023-12-29T15:12:33;2.42;;;1.23;;
3307;SDS011;1666;48.898;9.182;2023-12-29T15:15:06;1.33;;;1.20;;
3307;SDS011;1666;48.898;9.182;2023-12-29T15:17:37;2.10;;;1.23;;
3307;SDS011;1666;48.898;9.182;2023-12-29T15:20:07;1.48;;;1.15;;
3307;SDS011;1666;48.898;9.182;2023-12-29T15:22:41;1.48;;;1.13;;
3307;SDS011;1666;48.898;9.182;2023-12-29T15:25:12;2.70;;;1.33;;
3307;SDS011;1666;48.898;9.182;2023-12-29T15:27:42;1.83;;;1.25;;
3307;SDS011;1666;48.898;9.182;2023-12-29T15:30:12;1.15;;;0.95;;
3307;SDS011;1666;48.898;9.182;2023-12-29T15:32:43;2.35;;;1.30;;
3307;SDS011;1666;48.898;9.182;2023-12-29T15:35:14;1.35;;;1.02;;
3307;SDS011;1666;48.898;9.182;2023-12-29T15:37:46;5.68;;;3.83;;
3307;SDS011;1666;48.898;9.182;2023-12-29T15:40:16;1.95;;;1.27;;
3307;SDS011;1666;48.898;9.182;2023-12-29T15:42:46;2.05;;;1.05;;
3307;SDS011;1666;48.898;9.182;2023-12-29T15:45:18;1.27;;;1.10;;
3307;SDS011;1666;48.898;9.182;2023-12-29T15:47:49;1.98;;;1.33;;
3307;SDS011;1666;48.898;9.182;2023-12-29T15:50:19;3.13;;;1.90;;
3307;SDS011;1666;48.898;9.182;2023-12-29T15:52:52;1.80;;;1.40;;
3307;SDS011;1666;48.898;9.182;2023-12-29T15:55:22;2.15;;;1.80;;
3307;SDS011;1666;48.898;9.182;2023-12-29T15:57:52;3.20;;;1.15;;